New Delhi, India

6:38 PM IST on July 29, 2014 (GMT +0530)
Indira Gandhi International (VIDP) Elev 764 ft | 28.57 °N, 77.12 °E | Change Station

Current weather conditions updated 2 hours ago

Haze
Haze
93 °F
Feels Like 107 °F
N
9
Wind Variable Wind from East

Tomorrow is forecast to be Cooler than today.

Today
High -- | Low -- °F
--% Chance of Precip.
Yesterday
High -- | Low -- °F
Precip. -- in
5:41 AM 7:14 PM
Waxing Crescent, 6% visible
Pressure 29.53 in
Visibility 3.1 miles
Clouds Scattered Clouds 3000 ft
Few 4000 ft
Mostly Cloudy 10000 ft
Heat Index 107 °F
Dew Point 77 °F
Humidity 59%
Rainfall 0.00 in
Snow Depth Not available.
UV 3 out of 12
Pollen Not available.
Air Quality Not available.
Flu Activity Not available.
METAR VIDP 291100Z 10008KT 5000 HZ SCT030 FEW040CB BKN100 34/25 Q1000 TEMPO TS

More Conditions Fewer Conditions

Pressure 29.53 in
Visibility 3.1 miles
Clouds Scattered Clouds 3000 ft
Few 4000 ft
Mostly Cloudy 10000 ft
Heat Index 107 °F
Dew Point 77 °F
Humidity 59%
Rainfall 0.00 in
Snow Depth Not available.
UV 3 out of 12
Pollen Not available.
Air Quality Not available.
Flu Activity Not available.
METAR VIDP 291100Z 10008KT 5000 HZ SCT030 FEW040CB BKN100 34/25 Q1000 TEMPO TS

More Conditions Fewer Conditions

10-Day Weather Forecast

Almanac

Astronomy

Jul. 29, 2014 Rise Set
Actual Time 5:41 AM IST 7:14 PM IST
Civil Twilight 5:15 AM IST 7:40 PM IST
Nautical Twilight 4:44 AM IST 8:10 PM IST
Astronomical Twilight 4:12 AM IST 8:42 PM IST
Moon 7:37 AM IST 8:29 PM IST
Length of Visible Light 14h 24m
Length of Day
13h 33m
Tomorrow will be 1m 12s shorter.
Waxing Crescent, 6% of the Moon is Illuminated
Today
Waxing Crescent
Aug 3
First Quarter
Aug 10
Full
Aug 17
Last Quarter
Aug 25
New

Yesterday's Extremes

Country Highs Country Lows

Community

WunderPhotos

Upload Photos

1,738,706 photos uploaded!

Nearby

Snow Depth

Not available.

Earthquake Activity

City Distance Mag. Time & Date
No recent earthquake activity has been reported nearby.
Minimum magnitude displayed is 2.5.

Coastal Water Temperatures

Place Temperature
No Stations Reporting

Nearby Weather Stations

Station Location Temp. Heat Index Dew Point Humidity Wind Precip. Elev Updated Type
New Delhi - GK2, New Delhi 82.6 °F 92 °F 78 °F 86% WSW  at  0.0 mph 0.00 in / hr 810 ft 6:38 PM IST Rapid Fire
IILM, Greater Noida 88.8 °F 104 °F 79 °F 73% East  at  3.0 mph 0.00 in / hr 643 ft 6:34 PM IST Normal

Show More Stations Show Fewer Stations